sensor_id;sensor_type;location;lat;lon;timestamp;P1;durP1;ratioP1;P2;durP2;ratioP2
76631;SDS011;65526;48.578;-4.520;2023-11-19T00:01:53;53.15;;;5.22;;
76631;SDS011;65526;48.578;-4.520;2023-11-19T00:04:19;58.35;;;7.35;;
76631;SDS011;65526;48.578;-4.520;2023-11-19T00:06:46;63.45;;;7.20;;
76631;SDS011;65526;48.578;-4.520;2023-11-19T00:09:12;52.88;;;8.05;;
76631;SDS011;65526;48.578;-4.520;2023-11-19T00:11:39;60.25;;;6.60;;
76631;SDS011;65526;48.578;-4.520;2023-11-19T00:14:05;62.78;;;7.00;;
76631;SDS011;65526;48.578;-4.520;2023-11-19T00:16:34;57.63;;;6.50;;
76631;SDS011;65526;48.578;-4.520;2023-11-19T00:19:00;61.70;;;6.05;;
76631;SDS011;65526;48.578;-4.520;2023-11-19T00:21:27;51.80;;;7.75;;
76631;SDS011;65526;48.578;-4.520;2023-11-19T00:23:54;59.28;;;7.00;;
76631;SDS011;65526;48.578;-4.520;2023-11-19T00:26:20;45.58;;;6.07;;
76631;SDS011;65526;48.578;-4.520;2023-11-19T00:28:52;45.40;;;6.45;;
76631;SDS011;65526;48.578;-4.520;2023-11-19T00:31:18;61.03;;;7.50;;
76631;SDS011;65526;48.578;-4.520;2023-11-19T00:33:45;55.20;;;6.63;;
76631;SDS011;65526;48.578;-4.520;2023-11-19T00:36:11;57.95;;;5.82;;
76631;SDS011;65526;48.578;-4.520;2023-11-19T00:38:38;55.47;;;6.65;;
76631;SDS011;65526;48.578;-4.520;2023-11-19T00:41:05;56.08;;;5.95;;
76631;SDS011;65526;48.578;-4.520;2023-11-19T00:43:32;56.88;;;8.23;;
76631;SDS011;65526;48.578;-4.520;2023-11-19T00:45:58;59.17;;;6.05;;
76631;SDS011;65526;48.578;-4.520;2023-11-19T00:48:25;68.72;;;6.10;;
76631;SDS011;65526;48.578;-4.520;2023-11-19T00:50:52;42.22;;;6.35;;
76631;SDS011;65526;48.578;-4.520;2023-11-19T00:53:19;55.50;;;5.65;;
76631;SDS011;65526;48.578;-4.520;2023-11-19T00:55:45;60.83;;;6.18;;
76631;SDS011;65526;48.578;-4.520;2023-11-19T00:58:12;51.70;;;7.32;;
76631;SDS011;65526;48.578;-4.520;2023-11-19T01:00:38;45.90;;;5.75;;
76631;SDS011;65526;48.578;-4.520;2023-11-19T01:03:05;45.38;;;5.50;;
76631;SDS011;65526;48.578;-4.520;2023-11-19T01:05:33;48.50;;;4.90;;
76631;SDS011;65526;48.578;-4.520;2023-11-19T01:07:59;53.45;;;6.40;;
76631;SDS011;65526;48.578;-4.520;2023-11-19T01:10:26;45.38;;;5.22;;
76631;SDS011;65526;48.578;-4.520;2023-11-19T01:12:52;46.53;;;8.48;;
76631;SDS011;65526;48.578;-4.520;2023-11-19T01:15:18;49.72;;;5.60;;
76631;SDS011;65526;48.578;-4.520;2023-11-19T01:17:45;55.67;;;7.13;;
76631;SDS011;65526;48.578;-4.520;2023-11-19T01:20:12;54.30;;;7.35;;
76631;SDS011;65526;48.578;-4.520;2023-11-19T01:22:39;49.90;;;5.78;;
76631;SDS011;65526;48.578;-4.520;2023-11-19T01:25:06;44.83;;;6.22;;
76631;SDS011;65526;48.578;-4.520;2023-11-19T01:27:33;51.70;;;6.70;;
76631;SDS011;65526;48.578;-4.520;2023-11-19T01:30:02;51.22;;;6.60;;
76631;SDS011;65526;48.578;-4.520;2023-11-19T01:32:29;50.08;;;5.80;;
76631;SDS011;65526;48.578;-4.520;2023-11-19T01:34:56;48.08;;;5.45;;
76631;SDS011;65526;48.578;-4.520;2023-11-19T01:37:22;50.38;;;5.05;;
76631;SDS011;65526;48.578;-4.520;2023-11-19T01:39:49;45.08;;;5.40;;
76631;SDS011;65526;48.578;-4.520;2023-11-19T01:42:15;43.50;;;5.72;;
76631;SDS011;65526;48.578;-4.520;2023-11-19T01:44:42;52.85;;;5.57;;
76631;SDS011;65526;48.578;-4.520;2023-11-19T01:47:08;54.78;;;5.97;;
76631;SDS011;65526;48.578;-4.520;2023-11-19T01:49:35;37.58;;;5.30;;
76631;SDS011;65526;48.578;-4.520;2023-11-19T01:52:01;51.13;;;6.13;;
76631;SDS011;65526;48.578;-4.520;2023-11-19T01:54:28;59.45;;;6.63;;
76631;SDS011;65526;48.578;-4.520;2023-11-19T01:56:55;51.97;;;6.30;;
76631;SDS011;65526;48.578;-4.520;2023-11-19T01:59:23;53.25;;;6.95;;
76631;SDS011;65526;48.578;-4.520;2023-11-19T02:01:53;45.47;;;5.65;;
76631;SDS011;65526;48.578;-4.520;2023-11-19T02:04:20;41.80;;;4.43;;
76631;SDS011;65526;48.578;-4.520;2023-11-19T02:06:48;44.65;;;5.28;;
76631;SDS011;65526;48.578;-4.520;2023-11-19T02:09:18;38.25;;;5.20;;
76631;SDS011;65526;48.578;-4.520;2023-11-19T02:11:45;53.28;;;5.78;;
76631;SDS011;65526;48.578;-4.520;2023-11-19T02:14:17;41.88;;;5.55;;
76631;SDS011;65526;48.578;-4.520;2023-11-19T02:16:44;46.45;;;5.35;;
76631;SDS011;65526;48.578;-4.520;2023-11-19T02:19:10;53.70;;;7.22;;
76631;SDS011;65526;48.578;-4.520;2023-11-19T02:21:37;45.85;;;5.55;;
76631;SDS011;65526;48.578;-4.520;2023-11-19T02:24:04;43.53;;;4.80;;
76631;SDS011;65526;48.578;-4.520;2023-11-19T02:27:08;43.35;;;5.60;;
76631;SDS011;65526;48.578;-4.520;2023-11-19T02:29:33;39.03;;;4.95;;
76631;SDS011;65526;48.578;-4.520;2023-11-19T02:32:01;46.00;;;5.13;;
76631;SDS011;65526;48.578;-4.520;2023-11-19T02:34:27;50.15;;;8.20;;
76631;SDS011;65526;48.578;-4.520;2023-11-19T02:36:54;48.03;;;5.38;;
76631;SDS011;65526;48.578;-4.520;2023-11-19T02:39:20;42.42;;;5.05;;
76631;SDS011;65526;48.578;-4.520;2023-11-19T02:41:47;44.47;;;5.22;;
76631;SDS011;65526;48.578;-4.520;2023-11-19T02:44:16;39.80;;;4.95;;
76631;SDS011;65526;48.578;-4.520;2023-11-19T02:46:43;43.47;;;5.53;;
76631;SDS011;65526;48.578;-4.520;2023-11-19T02:49:11;39.30;;;4.47;;
76631;SDS011;65526;48.578;-4.520;2023-11-19T02:51:38;43.08;;;6.35;;
76631;SDS011;65526;48.578;-4.520;2023-11-19T02:54:05;53.35;;;7.38;;
76631;SDS011;65526;48.578;-4.520;2023-11-19T02:56:31;44.92;;;5.35;;
76631;SDS011;65526;48.578;-4.520;2023-11-19T02:59:01;44.75;;;6.07;;
76631;SDS011;65526;48.578;-4.520;2023-11-19T03:01:39;40.08;;;5.40;;
76631;SDS011;65526;48.578;-4.520;2023-11-19T03:04:09;40.15;;;4.97;;
76631;SDS011;65526;48.578;-4.520;2023-11-19T03:06:38;47.70;;;5.45;;
76631;SDS011;65526;48.578;-4.520;2023-11-19T03:09:08;40.83;;;5.85;;
76631;SDS011;65526;48.578;-4.520;2023-11-19T03:11:36;47.17;;;5.00;;
76631;SDS011;65526;48.578;-4.520;2023-11-19T03:14:03;30.38;;;4.70;;
76631;SDS011;65526;48.578;-4.520;2023-11-19T03:16:30;50.35;;;5.13;;
76631;SDS011;65526;48.578;-4.520;2023-11-19T03:18:57;44.67;;;5.75;;
76631;SDS011;65526;48.578;-4.520;2023-11-19T03:21:27;32.30;;;3.53;;
76631;SDS011;65526;48.578;-4.520;2023-11-19T03:23:55;37.85;;;5.20;;
76631;SDS011;65526;48.578;-4.520;2023-11-19T03:26:21;42.13;;;4.82;;
76631;SDS011;65526;48.578;-4.520;2023-11-19T03:28:48;43.20;;;5.10;;
76631;SDS011;65526;48.578;-4.520;2023-11-19T03:31:14;45.50;;;4.28;;
76631;SDS011;65526;48.578;-4.520;2023-11-19T03:33:41;28.98;;;4.03;;
76631;SDS011;65526;48.578;-4.520;2023-11-19T03:36:07;45.42;;;4.78;;
76631;SDS011;65526;48.578;-4.520;2023-11-19T03:38:35;38.05;;;5.00;;
76631;SDS011;65526;48.578;-4.520;2023-11-19T03:41:12;37.75;;;4.03;;
76631;SDS011;65526;48.578;-4.520;2023-11-19T03:43:40;43.78;;;5.70;;
76631;SDS011;65526;48.578;-4.520;2023-11-19T03:46:17;32.35;;;4.65;;
76631;SDS011;65526;48.578;-4.520;2023-11-19T03:48:46;41.80;;;5.80;;
76631;SDS011;65526;48.578;-4.520;2023-11-19T03:51:16;40.08;;;4.57;;
76631;SDS011;65526;48.578;-4.520;2023-11-19T03:53:46;48.08;;;5.03;;
76631;SDS011;65526;48.578;-4.520;2023-11-19T03:56:13;36.67;;;4.85;;
76631;SDS011;65526;48.578;-4.520;2023-11-19T03:58:39;34.42;;;4.45;;
76631;SDS011;65526;48.578;-4.520;2023-11-19T04:01:06;42.92;;;6.07;;
76631;SDS011;65526;48.578;-4.520;2023-11-19T04:03:39;39.00;;;4.60;;
76631;SDS011;65526;48.578;-4.520;2023-11-19T04:06:05;34.95;;;3.55;;
76631;SDS011;65526;48.578;-4.520;2023-11-19T04:08:33;33.33;;;3.78;;
76631;SDS011;65526;48.578;-4.520;2023-11-19T04:10:59;27.58;;;4.22;;
76631;SDS011;65526;48.578;-4.520;2023-11-19T04:13:26;39.03;;;5.65;;
76631;SDS011;65526;48.578;-4.520;2023-11-19T04:15:53;38.67;;;4.60;;
76631;SDS011;65526;48.578;-4.520;2023-11-19T04:18:20;43.72;;;4.93;;
76631;SDS011;65526;48.578;-4.520;2023-11-19T04:20:47;40.67;;;4.40;;
76631;SDS011;65526;48.578;-4.520;2023-11-19T04:23:13;35.22;;;4.72;;
76631;SDS011;65526;48.578;-4.520;2023-11-19T04:25:40;35.50;;;4.85;;
76631;SDS011;65526;48.578;-4.520;2023-11-19T04:28:06;40.13;;;5.43;;
76631;SDS011;65526;48.578;-4.520;2023-11-19T04:30:34;32.83;;;4.07;;
76631;SDS011;65526;48.578;-4.520;2023-11-19T04:33:01;29.00;;;3.85;;
76631;SDS011;65526;48.578;-4.520;2023-11-19T04:35:27;34.97;;;4.57;;
76631;SDS011;65526;48.578;-4.520;2023-11-19T04:37:54;34.55;;;4.90;;
76631;SDS011;65526;48.578;-4.520;2023-11-19T04:40:23;50.70;;;7.30;;
76631;SDS011;65526;48.578;-4.520;2023-11-19T04:42:49;43.20;;;4.82;;
76631;SDS011;65526;48.578;-4.520;2023-11-19T04:45:16;45.67;;;4.28;;
76631;SDS011;65526;48.578;-4.520;2023-11-19T04:47:43;37.35;;;5.35;;
76631;SDS011;65526;48.578;-4.520;2023-11-19T04:50:11;37.75;;;4.88;;
76631;SDS011;65526;48.578;-4.520;2023-11-19T04:52:41;34.60;;;4.72;;
76631;SDS011;65526;48.578;-4.520;2023-11-19T04:55:12;36.90;;;3.70;;
76631;SDS011;65526;48.578;-4.520;2023-11-19T04:57:40;32.28;;;5.35;;
76631;SDS011;65526;48.578;-4.520;2023-11-19T05:00:06;34.78;;;4.72;;
76631;SDS011;65526;48.578;-4.520;2023-11-19T05:02:34;36.47;;;4.00;;
76631;SDS011;65526;48.578;-4.520;2023-11-19T05:05:01;32.85;;;3.85;;
76631;SDS011;65526;48.578;-4.520;2023-11-19T05:07:29;40.80;;;4.32;;
76631;SDS011;65526;48.578;-4.520;2023-11-19T05:09:56;34.45;;;5.63;;
76631;SDS011;65526;48.578;-4.520;2023-11-19T05:12:23;31.17;;;4.43;;
76631;SDS011;65526;48.578;-4.520;2023-11-19T05:14:49;43.28;;;4.85;;
76631;SDS011;65526;48.578;-4.520;2023-11-19T05:17:17;36.28;;;5.65;;
76631;SDS011;65526;48.578;-4.520;2023-11-19T05:19:46;25.83;;;4.18;;
76631;SDS011;65526;48.578;-4.520;2023-11-19T05:22:13;29.58;;;3.72;;
76631;SDS011;65526;48.578;-4.520;2023-11-19T05:24:40;40.35;;;4.28;;
76631;SDS011;65526;48.578;-4.520;2023-11-19T05:27:06;33.25;;;3.67;;
76631;SDS011;65526;48.578;-4.520;2023-11-19T05:29:33;29.80;;;3.90;;
76631;SDS011;65526;48.578;-4.520;2023-11-19T05:32:00;40.33;;;6.32;;
76631;SDS011;65526;48.578;-4.520;2023-11-19T05:34:27;34.55;;;4.47;;
76631;SDS011;65526;48.578;-4.520;2023-11-19T05:36:53;32.45;;;3.83;;
76631;SDS011;65526;48.578;-4.520;2023-11-19T05:39:20;32.33;;;4.30;;
76631;SDS011;65526;48.578;-4.520;2023-11-19T05:41:46;30.58;;;4.38;;
76631;SDS011;65526;48.578;-4.520;2023-11-19T05:44:14;28.52;;;3.30;;
76631;SDS011;65526;48.578;-4.520;2023-11-19T05:46:47;35.50;;;4.35;;
76631;SDS011;65526;48.578;-4.520;2023-11-19T05:49:13;44.05;;;4.25;;
76631;SDS011;65526;48.578;-4.520;2023-11-19T05:51:40;25.15;;;5.03;;
76631;SDS011;65526;48.578;-4.520;2023-11-19T05:54:07;35.45;;;5.38;;
76631;SDS011;65526;48.578;-4.520;2023-11-19T05:56:34;33.40;;;4.97;;
76631;SDS011;65526;48.578;-4.520;2023-11-19T05:59:01;31.50;;;3.78;;
76631;SDS011;65526;48.578;-4.520;2023-11-19T06:01:36;39.35;;;4.05;;
76631;SDS011;65526;48.578;-4.520;2023-11-19T06:04:03;37.65;;;4.85;;
76631;SDS011;65526;48.578;-4.520;2023-11-19T06:06:30;38.30;;;5.05;;
76631;SDS011;65526;48.578;-4.520;2023-11-19T06:08:57;33.10;;;3.53;;
76631;SDS011;65526;48.578;-4.520;2023-11-19T06:11:23;29.95;;;4.25;;
76631;SDS011;65526;48.578;-4.520;2023-11-19T06:13:52;27.73;;;3.80;;
76631;SDS011;65526;48.578;-4.520;2023-11-19T06:16:19;36.03;;;4.25;;
76631;SDS011;65526;48.578;-4.520;2023-11-19T06:18:46;33.97;;;4.15;;
76631;SDS011;65526;48.578;-4.520;2023-11-19T06:21:12;33.40;;;5.43;;
76631;SDS011;65526;48.578;-4.520;2023-11-19T06:23:38;41.17;;;5.75;;
76631;SDS011;65526;48.578;-4.520;2023-11-19T06:26:05;40.78;;;5.65;;
76631;SDS011;65526;48.578;-4.520;2023-11-19T06:28:31;30.23;;;4.18;;
76631;SDS011;65526;48.578;-4.520;2023-11-19T06:30:58;27.55;;;4.07;;
76631;SDS011;65526;48.578;-4.520;2023-11-19T06:33:24;26.88;;;4.13;;
76631;SDS011;65526;48.578;-4.520;2023-11-19T06:35:51;26.55;;;4.32;;
76631;SDS011;65526;48.578;-4.520;2023-11-19T06:38:18;28.95;;;3.53;;
76631;SDS011;65526;48.578;-4.520;2023-11-19T06:40:44;32.95;;;4.43;;
76631;SDS011;65526;48.578;-4.520;2023-11-19T06:43:11;32.70;;;3.38;;
76631;SDS011;65526;48.578;-4.520;2023-11-19T06:45:37;38.97;;;4.70;;
76631;SDS011;65526;48.578;-4.520;2023-11-19T06:48:04;26.08;;;4.18;;
76631;SDS011;65526;48.578;-4.520;2023-11-19T06:50:31;37.28;;;4.80;;
76631;SDS011;65526;48.578;-4.520;2023-11-19T06:52:58;32.05;;;4.82;;
76631;SDS011;65526;48.578;-4.520;2023-11-19T06:55:26;32.47;;;4.95;;
76631;SDS011;65526;48.578;-4.520;2023-11-19T06:57:52;37.33;;;4.03;;
76631;SDS011;65526;48.578;-4.520;2023-11-19T07:00:19;34.33;;;4.63;;
76631;SDS011;65526;48.578;-4.520;2023-11-19T07:02:46;21.98;;;3.88;;
76631;SDS011;65526;48.578;-4.520;2023-11-19T07:05:12;27.08;;;4.50;;
76631;SDS011;65526;48.578;-4.520;2023-11-19T07:07:39;29.38;;;4.80;;
76631;SDS011;65526;48.578;-4.520;2023-11-19T07:10:06;24.73;;;3.92;;
76631;SDS011;65526;48.578;-4.520;2023-11-19T07:12:35;33.72;;;4.75;;
76631;SDS011;65526;48.578;-4.520;2023-11-19T07:15:02;28.73;;;3.95;;
76631;SDS011;65526;48.578;-4.520;2023-11-19T07:17:30;40.40;;;4.75;;
76631;SDS011;65526;48.578;-4.520;2023-11-19T07:19:56;32.00;;;4.25;;
76631;SDS011;65526;48.578;-4.520;2023-11-19T07:22:25;30.48;;;4.30;;
76631;SDS011;65526;48.578;-4.520;2023-11-19T07:24:52;32.92;;;4.90;;
76631;SDS011;65526;48.578;-4.520;2023-11-19T07:27:21;20.08;;;3.50;;
76631;SDS011;65526;48.578;-4.520;2023-11-19T07:29:48;27.63;;;3.50;;
76631;SDS011;65526;48.578;-4.520;2023-11-19T07:32:14;31.55;;;4.65;;
76631;SDS011;65526;48.578;-4.520;2023-11-19T07:34:40;27.27;;;3.38;;
76631;SDS011;65526;48.578;-4.520;2023-11-19T07:37:07;26.65;;;3.83;;
76631;SDS011;65526;48.578;-4.520;2023-11-19T07:39:33;38.38;;;4.70;;
76631;SDS011;65526;48.578;-4.520;2023-11-19T07:42:01;27.48;;;3.33;;
76631;SDS011;65526;48.578;-4.520;2023-11-19T07:44:27;35.13;;;4.15;;
76631;SDS011;65526;48.578;-4.520;2023-11-19T07:46:54;32.67;;;3.78;;
76631;SDS011;65526;48.578;-4.520;2023-11-19T07:49:20;29.83;;;3.63;;
76631;SDS011;65526;48.578;-4.520;2023-11-19T07:51:46;29.20;;;3.75;;
76631;SDS011;65526;48.578;-4.520;2023-11-19T07:54:12;27.20;;;3.60;;
76631;SDS011;65526;48.578;-4.520;2023-11-19T07:56:39;34.97;;;4.22;;
76631;SDS011;65526;48.578;-4.520;2023-11-19T07:59:06;29.73;;;3.75;;
76631;SDS011;65526;48.578;-4.520;2023-11-19T08:01:32;37.58;;;4.95;;
76631;SDS011;65526;48.578;-4.520;2023-11-19T08:03:58;29.25;;;4.15;;
76631;SDS011;65526;48.578;-4.520;2023-11-19T08:06:25;27.73;;;3.70;;
76631;SDS011;65526;48.578;-4.520;2023-11-19T08:08:51;25.95;;;4.20;;
76631;SDS011;65526;48.578;-4.520;2023-11-19T08:11:18;24.63;;;4.13;;
76631;SDS011;65526;48.578;-4.520;2023-11-19T08:13:45;30.23;;;3.28;;
76631;SDS011;65526;48.578;-4.520;2023-11-19T08:16:12;28.85;;;3.92;;
76631;SDS011;65526;48.578;-4.520;2023-11-19T08:18:38;25.85;;;3.67;;
76631;SDS011;65526;48.578;-4.520;2023-11-19T08:21:08;26.63;;;3.88;;
76631;SDS011;65526;48.578;-4.520;2023-11-19T08:23:35;29.23;;;3.90;;
76631;SDS011;65526;48.578;-4.520;2023-11-19T08:26:03;23.98;;;3.42;;
76631;SDS011;65526;48.578;-4.520;2023-11-19T08:28:30;31.35;;;3.22;;
76631;SDS011;65526;48.578;-4.520;2023-11-19T08:30:57;17.77;;;3.65;;
76631;SDS011;65526;48.578;-4.520;2023-11-19T08:33:24;29.63;;;3.40;;
76631;SDS011;65526;48.578;-4.520;2023-11-19T08:35:51;29.65;;;3.45;;
76631;SDS011;65526;48.578;-4.520;2023-11-19T08:38:17;17.40;;;3.60;;
76631;SDS011;65526;48.578;-4.520;2023-11-19T08:40:44;29.90;;;4.00;;
76631;SDS011;65526;48.578;-4.520;2023-11-19T08:43:10;30.25;;;4.10;;
76631;SDS011;65526;48.578;-4.520;2023-11-19T08:45:37;31.73;;;5.05;;
76631;SDS011;65526;48.578;-4.520;2023-11-19T08:48:03;25.20;;;3.85;;
76631;SDS011;65526;48.578;-4.520;2023-11-19T08:50:29;27.27;;;4.38;;
76631;SDS011;65526;48.578;-4.520;2023-11-19T08:52:56;27.30;;;3.85;;
76631;SDS011;65526;48.578;-4.520;2023-11-19T08:55:22;26.38;;;3.63;;
76631;SDS011;65526;48.578;-4.520;2023-11-19T08:57:49;23.70;;;4.00;;
76631;SDS011;65526;48.578;-4.520;2023-11-19T09:00:15;25.33;;;3.50;;
76631;SDS011;65526;48.578;-4.520;2023-11-19T09:02:42;26.98;;;4.00;;
76631;SDS011;65526;48.578;-4.520;2023-11-19T09:05:08;19.85;;;3.47;;
76631;SDS011;65526;48.578;-4.520;2023-11-19T09:07:35;21.40;;;3.10;;
76631;SDS011;65526;48.578;-4.520;2023-11-19T09:10:01;28.10;;;3.70;;
76631;SDS011;65526;48.578;-4.520;2023-11-19T09:12:28;24.38;;;3.85;;
76631;SDS011;65526;48.578;-4.520;2023-11-19T09:14:54;21.92;;;3.80;;
76631;SDS011;65526;48.578;-4.520;2023-11-19T09:17:20;25.80;;;3.50;;
76631;SDS011;65526;48.578;-4.520;2023-11-19T09:19:47;25.02;;;3.42;;
76631;SDS011;65526;48.578;-4.520;2023-11-19T09:22:13;21.63;;;2.83;;
76631;SDS011;65526;48.578;-4.520;2023-11-19T09:24:40;25.08;;;3.25;;
76631;SDS011;65526;48.578;-4.520;2023-11-19T09:27:07;24.88;;;3.28;;
76631;SDS011;65526;48.578;-4.520;2023-11-19T09:29:33;22.42;;;4.28;;
76631;SDS011;65526;48.578;-4.520;2023-11-19T09:31:59;24.27;;;3.40;;
76631;SDS011;65526;48.578;-4.520;2023-11-19T09:34:26;34.80;;;4.75;;
76631;SDS011;65526;48.578;-4.520;2023-11-19T09:36:53;34.20;;;4.72;;
76631;SDS011;65526;48.578;-4.520;2023-11-19T09:39:20;26.17;;;3.70;;
76631;SDS011;65526;48.578;-4.520;2023-11-19T09:41:47;27.00;;;3.38;;
76631;SDS011;65526;48.578;-4.520;2023-11-19T09:44:13;22.08;;;3.05;;
76631;SDS011;65526;48.578;-4.520;2023-11-19T09:46:43;30.85;;;4.07;;
76631;SDS011;65526;48.578;-4.520;2023-11-19T09:49:11;33.88;;;4.75;;
76631;SDS011;65526;48.578;-4.520;2023-11-19T09:51:38;29.98;;;4.45;;
76631;SDS011;65526;48.578;-4.520;2023-11-19T09:54:05;28.30;;;4.45;;
76631;SDS011;65526;48.578;-4.520;2023-11-19T09:56:33;31.17;;;3.72;;
76631;SDS011;65526;48.578;-4.520;2023-11-19T10:01:28;25.75;;;2.97;;
76631;SDS011;65526;48.578;-4.520;2023-11-19T10:03:57;27.90;;;4.10;;
76631;SDS011;65526;48.578;-4.520;2023-11-19T10:06:24;25.35;;;3.30;;
76631;SDS011;65526;48.578;-4.520;2023-11-19T10:08:52;20.90;;;3.22;;
76631;SDS011;65526;48.578;-4.520;2023-11-19T10:11:19;35.90;;;3.88;;
76631;SDS011;65526;48.578;-4.520;2023-11-19T10:13:45;14.25;;;3.13;;
76631;SDS011;65526;48.578;-4.520;2023-11-19T10:16:13;23.65;;;3.55;;
76631;SDS011;65526;48.578;-4.520;2023-11-19T10:18:48;29.88;;;4.30;;
76631;SDS011;65526;48.578;-4.520;2023-11-19T10:21:18;36.60;;;4.47;;
76631;SDS011;65526;48.578;-4.520;2023-11-19T10:23:51;30.35;;;6.18;;
76631;SDS011;65526;48.578;-4.520;2023-11-19T10:26:20;26.08;;;4.05;;
76631;SDS011;65526;48.578;-4.520;2023-11-19T10:28:47;24.00;;;3.20;;
76631;SDS011;65526;48.578;-4.520;2023-11-19T10:31:18;25.48;;;3.40;;
76631;SDS011;65526;48.578;-4.520;2023-11-19T10:33:50;24.15;;;3.22;;
76631;SDS011;65526;48.578;-4.520;2023-11-19T10:36:17;26.50;;;4.13;;
76631;SDS011;65526;48.578;-4.520;2023-11-19T10:38:53;24.00;;;4.07;;
76631;SDS011;65526;48.578;-4.520;2023-11-19T10:41:28;22.00;;;4.38;;
76631;SDS011;65526;48.578;-4.520;2023-11-19T10:43:54;19.50;;;3.25;;
76631;SDS011;65526;48.578;-4.520;2023-11-19T10:46:20;33.08;;;4.50;;
76631;SDS011;65526;48.578;-4.520;2023-11-19T10:48:49;21.42;;;3.55;;
76631;SDS011;65526;48.578;-4.520;2023-11-19T10:51:19;24.42;;;4.10;;
76631;SDS011;65526;48.578;-4.520;2023-11-19T10:53:49;28.27;;;4.03;;
76631;SDS011;65526;48.578;-4.520;2023-11-19T10:56:17;21.55;;;3.20;;
76631;SDS011;65526;48.578;-4.520;2023-11-19T10:58:46;30.67;;;6.20;;
76631;SDS011;65526;48.578;-4.520;2023-11-19T11:01:18;30.65;;;4.70;;
76631;SDS011;65526;48.578;-4.520;2023-11-19T11:03:49;28.73;;;3.53;;
76631;SDS011;65526;48.578;-4.520;2023-11-19T11:06:20;26.77;;;3.53;;
76631;SDS011;65526;48.578;-4.520;2023-11-19T11:08:48;23.08;;;3.47;;
76631;SDS011;65526;48.578;-4.520;2023-11-19T11:11:15;32.17;;;3.75;;
76631;SDS011;65526;48.578;-4.520;2023-11-19T11:13:47;25.58;;;3.38;;
76631;SDS011;65526;48.578;-4.520;2023-11-19T11:16:15;25.73;;;3.95;;
76631;SDS011;65526;48.578;-4.520;2023-11-19T11:18:45;23.17;;;2.92;;
76631;SDS011;65526;48.578;-4.520;2023-11-19T11:21:16;29.90;;;3.58;;
76631;SDS011;65526;48.578;-4.520;2023-11-19T11:37:26;26.70;;;4.35;;
76631;SDS011;65526;48.578;-4.520;2023-11-19T11:39:59;30.25;;;4.07;;
76631;SDS011;65526;48.578;-4.520;2023-11-19T11:42:32;36.40;;;4.28;;
76631;SDS011;65526;48.578;-4.520;2023-11-19T11:45:03;36.65;;;4.88;;
76631;SDS011;65526;48.578;-4.520;2023-11-19T11:50:15;31.20;;;4.32;;
76631;SDS011;65526;48.578;-4.520;2023-11-19T11:57:55;19.98;;;2.97;;
76631;SDS011;65526;48.578;-4.520;2023-11-19T12:00:28;23.58;;;2.85;;
76631;SDS011;65526;48.578;-4.520;2023-11-19T12:03:04;26.98;;;3.42;;
76631;SDS011;65526;48.578;-4.520;2023-11-19T12:05:32;24.60;;;3.47;;
76631;SDS011;65526;48.578;-4.520;2023-11-19T12:08:05;33.92;;;5.10;;
76631;SDS011;65526;48.578;-4.520;2023-11-19T12:10:36;30.92;;;3.88;;
76631;SDS011;65526;48.578;-4.520;2023-11-19T12:13:09;28.50;;;4.18;;
76631;SDS011;65526;48.578;-4.520;2023-11-19T12:18:31;25.73;;;3.70;;
76631;SDS011;65526;48.578;-4.520;2023-11-19T12:20:59;23.55;;;4.13;;
76631;SDS011;65526;48.578;-4.520;2023-11-19T12:23:28;24.02;;;3.83;;
76631;SDS011;65526;48.578;-4.520;2023-11-19T12:25:55;23.80;;;3.03;;
76631;SDS011;65526;48.578;-4.520;2023-11-19T12:28:23;26.52;;;2.83;;
76631;SDS011;65526;48.578;-4.520;2023-11-19T12:30:52;24.20;;;3.63;;
76631;SDS011;65526;48.578;-4.520;2023-11-19T12:33:21;23.38;;;4.50;;
76631;SDS011;65526;48.578;-4.520;2023-11-19T12:35:48;14.90;;;2.35;;
76631;SDS011;65526;48.578;-4.520;2023-11-19T12:38:24;21.02;;;2.72;;
76631;SDS011;65526;48.578;-4.520;2023-11-19T12:41:07;23.67;;;2.55;;
76631;SDS011;65526;48.578;-4.520;2023-11-19T12:43:39;26.52;;;3.13;;
76631;SDS011;65526;48.578;-4.520;2023-11-19T12:46:21;24.63;;;3.83;;
76631;SDS011;65526;48.578;-4.520;2023-11-19T12:48:49;24.27;;;4.70;;
76631;SDS011;65526;48.578;-4.520;2023-11-19T12:51:16;22.73;;;3.22;;
76631;SDS011;65526;48.578;-4.520;2023-11-19T12:53:49;21.95;;;3.20;;
76631;SDS011;65526;48.578;-4.520;2023-11-19T12:56:20;27.02;;;4.63;;
76631;SDS011;65526;48.578;-4.520;2023-11-19T12:58:47;25.38;;;3.97;;
76631;SDS011;65526;48.578;-4.520;2023-11-19T13:01:17;25.17;;;2.92;;
76631;SDS011;65526;48.578;-4.520;2023-11-19T13:03:45;17.67;;;2.67;;
76631;SDS011;65526;48.578;-4.520;2023-11-19T13:06:12;25.83;;;3.22;;
76631;SDS011;65526;48.578;-4.520;2023-11-19T13:08:42;24.13;;;3.05;;
76631;SDS011;65526;48.578;-4.520;2023-11-19T13:11:10;21.20;;;3.38;;
76631;SDS011;65526;48.578;-4.520;2023-11-19T13:13:54;21.55;;;3.35;;
76631;SDS011;65526;48.578;-4.520;2023-11-19T13:16:29;27.38;;;2.95;;
76631;SDS011;65526;48.578;-4.520;2023-11-19T13:18:57;22.48;;;2.95;;
76631;SDS011;65526;48.578;-4.520;2023-11-19T13:21:25;23.20;;;3.10;;
76631;SDS011;65526;48.578;-4.520;2023-11-19T13:23:52;19.17;;;2.75;;
76631;SDS011;65526;48.578;-4.520;2023-11-19T13:26:18;24.65;;;4.18;;
76631;SDS011;65526;48.578;-4.520;2023-11-19T13:28:45;30.20;;;3.67;;
76631;SDS011;65526;48.578;-4.520;2023-11-19T13:31:12;25.85;;;2.92;;
76631;SDS011;65526;48.578;-4.520;2023-11-19T13:33:38;32.33;;;3.28;;
76631;SDS011;65526;48.578;-4.520;2023-11-19T13:36:05;21.30;;;3.35;;
76631;SDS011;65526;48.578;-4.520;2023-11-19T13:38:33;25.45;;;3.90;;
76631;SDS011;65526;48.578;-4.520;2023-11-19T13:41:04;24.98;;;3.53;;
76631;SDS011;65526;48.578;-4.520;2023-11-19T13:43:31;19.83;;;3.03;;
76631;SDS011;65526;48.578;-4.520;2023-11-19T13:45:57;26.77;;;4.03;;
76631;SDS011;65526;48.578;-4.520;2023-11-19T13:48:24;21.50;;;3.25;;
76631;SDS011;65526;48.578;-4.520;2023-11-19T13:50:52;19.63;;;4.13;;
76631;SDS011;65526;48.578;-4.520;2023-11-19T13:53:19;25.08;;;3.83;;
76631;SDS011;65526;48.578;-4.520;2023-11-19T13:55:45;29.48;;;3.13;;
76631;SDS011;65526;48.578;-4.520;2023-11-19T13:58:12;21.05;;;3.70;;
76631;SDS011;65526;48.578;-4.520;2023-11-19T14:00:38;28.48;;;3.85;;
76631;SDS011;65526;48.578;-4.520;2023-11-19T14:03:06;23.50;;;4.15;;
76631;SDS011;65526;48.578;-4.520;2023-11-19T14:05:32;23.70;;;3.92;;
76631;SDS011;65526;48.578;-4.520;2023-11-19T14:07:58;21.27;;;3.15;;
76631;SDS011;65526;48.578;-4.520;2023-11-19T14:10:25;21.75;;;3.53;;
76631;SDS011;65526;48.578;-4.520;2023-11-19T14:12:51;19.30;;;3.20;;
76631;SDS011;65526;48.578;-4.520;2023-11-19T14:15:18;23.27;;;3.60;;
76631;SDS011;65526;48.578;-4.520;2023-11-19T14:17:44;23.20;;;3.63;;
76631;SDS011;65526;48.578;-4.520;2023-11-19T14:20:11;20.25;;;4.18;;
76631;SDS011;65526;48.578;-4.520;2023-11-19T14:22:44;26.50;;;3.35;;
76631;SDS011;65526;48.578;-4.520;2023-11-19T14:25:14;26.20;;;4.30;;
76631;SDS011;65526;48.578;-4.520;2023-11-19T14:27:41;32.28;;;3.83;;
76631;SDS011;65526;48.578;-4.520;2023-11-19T14:30:09;21.80;;;3.40;;
76631;SDS011;65526;48.578;-4.520;2023-11-19T14:32:40;30.75;;;3.00;;
76631;SDS011;65526;48.578;-4.520;2023-11-19T14:35:12;21.98;;;3.15;;
76631;SDS011;65526;48.578;-4.520;2023-11-19T14:37:38;21.17;;;2.95;;
76631;SDS011;65526;48.578;-4.520;2023-11-19T14:40:05;19.48;;;2.75;;
76631;SDS011;65526;48.578;-4.520;2023-11-19T14:45:00;22.38;;;3.03;;
76631;SDS011;65526;48.578;-4.520;2023-11-19T14:47:27;16.63;;;2.70;;
76631;SDS011;65526;48.578;-4.520;2023-11-19T14:49:55;26.23;;;3.60;;
76631;SDS011;65526;48.578;-4.520;2023-11-19T14:52:21;25.92;;;3.28;;
76631;SDS011;65526;48.578;-4.520;2023-11-19T14:54:47;27.63;;;3.85;;